Urbana, Indiana
Current Conditions -  °F | °C
As of 12:55 PM on Friday 28 Nov 2014 (Local Time) from KHHG Reporting Station
Overcast Overcast  
Wind Chill: 19°   Ceiling: 9000
Heat Index: 28°   Visibility: 10mi
Dew Point: 19°   Wind: 8mph
Humidity: 69%   Direction: 170°S
Pressure: 30.23"   Gusts: NA
Location:  40.9°N, 85.79°W
Report Text: KHHG 281755Z AUTO 17007KT 10SM OVC090 M02/M07 A3023 RMK AO2 T10251074 11025 21058
Loading
Personal Weather Stations






























Interactive Weather Map New forecast layout! Learn more

10-Day Weather Forecast

Advertisements
Track Severe Weather on mobile